Time;durP1;ratioP1;P1;durP2;ratioP2;P2;SDS_P1;SDS_P2;PMS_P1;PMS_P2;Temp;Humidity;BMP_temperature;BMP_pressure;BME280_temperature;BME280_humidity;BME280_pressure;Samples;Min_cycle;Max_cycle;Signal;HPM_P1;HPM_P2
2021/05/14 05:39:36;;;;;;;6.97;2.00;;;;;;;;;;5657814;23;20043;-61
2021/05/14 05:42:02;;;;;;;5.72;1.95;;;;;;;;;;4856069;29;20436;-63
2021/05/14 05:44:28;;;;;;;4.72;2.00;;;;;;;;;;4863125;29;20059;-61
2021/05/14 05:46:54;;;;;;;11.65;2.50;;;;;;;;;;4868959;29;20053;-62
2021/05/14 05:49:23;;;;;;;9.23;2.33;;;;;;;;;;4867142;29;20026;-61
2021/05/14 05:51:49;;;;;;;5.75;2.90;;;;;;;;;;4868590;29;20052;-61
2021/05/14 05:54:15;;;;;;;7.40;2.05;;;;;;;;;;4868718;29;20077;-65
2021/05/14 05:56:46;;;;;;;8.82;2.55;;;;;;;;;;4867443;29;20105;-61
2021/05/14 05:59:16;;;;;;;7.25;2.35;;;;;;;;;;4867780;29;20033;-60
2021/05/14 06:01:42;;;;;;;18.20;2.70;;;;;;;;;;4870362;29;20032;-65
2021/05/14 06:04:08;;;;;;;11.38;2.97;;;;;;;;;;4859869;29;20033;-64
2021/05/14 06:06:34;;;;;;;9.10;1.85;;;;;;;;;;4858168;29;20085;-63
2021/05/14 06:09:00;;;;;;;14.55;3.17;;;;;;;;;;4857880;29;20025;-71
2021/05/14 06:11:26;;;;;;;10.32;2.20;;;;;;;;;;4841216;29;20081;-67
2021/05/14 06:13:52;;;;;;;6.55;1.90;;;;;;;;;;4857471;29;20037;-64
2021/05/14 06:16:19;;;;;;;7.20;1.90;;;;;;;;;;4857851;29;20025;-63
2021/05/14 06:18:50;;;;;;;12.18;2.20;;;;;;;;;;4858099;29;20117;-64
2021/05/14 06:21:16;;;;;;;7.80;1.70;;;;;;;;;;4840974;29;20486;-60
2021/05/14 06:23:42;;;;;;;8.98;1.98;;;;;;;;;;4858006;29;20533;-65
2021/05/14 06:26:08;;;;;;;7.55;2.10;;;;;;;;;;4858598;29;20140;-59
2021/05/14 06:28:34;;;;;;;4.43;1.70;;;;;;;;;;4859275;29;20101;-67
2021/05/14 06:31:00;;;;;;;6.93;2.10;;;;;;;;;;4858740;29;20033;-59
2021/05/14 06:33:27;;;;;;;9.35;2.53;;;;;;;;;;4859447;29;20041;-69
2021/05/14 06:35:54;;;;;;;10.18;2.28;;;;;;;;;;4858336;29;20026;-59
2021/05/14 06:38:20;;;;;;;9.07;2.65;;;;;;;;;;4840918;29;20097;-59
2021/05/14 06:40:46;;;;;;;4.70;1.80;;;;;;;;;;4857302;29;20064;-65
2021/05/14 06:43:12;;;;;;;10.13;1.88;;;;;;;;;;4857357;29;20137;-62
2021/05/14 06:45:38;;;;;;;4.38;1.55;;;;;;;;;;4856169;29;20040;-66
2021/05/14 06:48:05;;;;;;;7.13;1.50;;;;;;;;;;4857524;29;20064;-62
2021/05/14 06:50:31;;;;;;;5.25;1.48;;;;;;;;;;4858046;29;20077;-59
2021/05/14 06:52:57;;;;;;;4.80;1.55;;;;;;;;;;4858597;29;20040;-61
2021/05/14 06:55:23;;;;;;;4.20;1.40;;;;;;;;;;4858107;29;20093;-66
2021/05/14 06:57:49;;;;;;;6.53;1.60;;;;;;;;;;4856069;29;20025;-61
2021/05/14 07:00:18;;;;;;;5.38;1.40;;;;;;;;;;4857691;29;20041;-61
2021/05/14 07:02:45;;;;;;;5.07;1.23;;;;;;;;;;4857410;29;20089;-66
2021/05/14 07:05:11;;;;;;;6.50;1.42;;;;;;;;;;4854890;29;20018;-66
2021/05/14 07:07:37;;;;;;;11.13;2.58;;;;;;;;;;4856827;29;20045;-65
2021/05/14 07:10:04;;;;;;;5.20;1.50;;;;;;;;;;4857012;29;20394;-60
2021/05/14 07:12:30;;;;;;;3.97;1.30;;;;;;;;;;4857809;29;20045;-68
2021/05/14 07:14:56;;;;;;;5.20;2.35;;;;;;;;;;4857588;29;20030;-62
2021/05/14 07:17:22;;;;;;;3.72;1.75;;;;;;;;;;4858090;29;20033;-71
2021/05/14 07:19:48;;;;;;;7.20;3.80;;;;;;;;;;4856874;29;20508;-63
2021/05/14 07:22:14;;;;;;;6.47;3.03;;;;;;;;;;4858221;29;20029;-72
2021/05/14 07:24:41;;;;;;;6.43;1.60;;;;;;;;;;4854742;29;20505;-63
2021/05/14 07:27:07;;;;;;;5.07;1.80;;;;;;;;;;4866327;29;20033;-62
2021/05/14 07:29:33;;;;;;;5.75;1.92;;;;;;;;;;4874397;29;20072;-72
2021/05/14 07:31:59;;;;;;;6.68;1.95;;;;;;;;;;4858069;29;20109;-66
2021/05/14 07:34:25;;;;;;;6.28;1.90;;;;;;;;;;4855739;29;20061;-64
2021/05/14 07:36:51;;;;;;;6.97;2.08;;;;;;;;;;4856756;29;20030;-61
2021/05/14 07:39:17;;;;;;;7.28;1.90;;;;;;;;;;4856822;29;20114;-73
2021/05/14 07:41:43;;;;;;;6.35;2.30;;;;;;;;;;4856637;29;20406;-63
2021/05/14 07:44:09;;;;;;;6.53;2.00;;;;;;;;;;4856743;29;20029;-63
2021/05/14 07:46:35;;;;;;;4.70;1.88;;;;;;;;;;4857168;29;20029;-71
2021/05/14 07:49:01;;;;;;;4.85;1.33;;;;;;;;;;4858041;29;20033;-72
2021/05/14 07:51:27;;;;;;;3.67;1.92;;;;;;;;;;4857874;29;20037;-67
2021/05/14 07:53:53;;;;;;;3.50;1.52;;;;;;;;;;4857778;29;20393;-60
2021/05/14 07:56:19;;;;;;;5.03;1.50;;;;;;;;;;4858238;29;20029;-66
2021/05/14 07:58:45;;;;;;;4.10;1.15;;;;;;;;;;4857992;29;20081;-71
2021/05/14 08:01:11;;;;;;;6.25;1.63;;;;;;;;;;4857903;29;20030;-70
2021/05/14 08:03:37;;;;;;;3.53;1.38;;;;;;;;;;4857908;29;20034;-68
2021/05/14 08:06:04;;;;;;;5.05;2.00;;;;;;;;;;4857927;29;20564;-71
2021/05/14 08:08:34;;;;;;;3.28;1.50;;;;;;;;;;4856578;29;20033;-69
2021/05/14 08:11:00;;;;;;;4.43;1.33;;;;;;;;;;4857349;29;20030;-71
2021/05/14 08:13:26;;;;;;;5.05;1.60;;;;;;;;;;4857984;29;20090;-65
2021/05/14 08:15:52;;;;;;;3.45;1.23;;;;;;;;;;4857937;29;20030;-71
2021/05/14 08:18:19;;;;;;;4.25;1.58;;;;;;;;;;4859763;29;20033;-71
2021/05/14 08:20:45;;;;;;;5.97;1.83;;;;;;;;;;4861207;29;20025;-65
2021/05/14 08:23:11;;;;;;;4.47;1.45;;;;;;;;;;4861298;29;20166;-61
2021/05/14 08:25:38;;;;;;;3.25;1.23;;;;;;;;;;4861213;29;20033;-69
2021/05/14 08:28:04;;;;;;;3.08;1.08;;;;;;;;;;4861450;29;20028;-64
2021/05/14 08:30:30;;;;;;;3.17;1.42;;;;;;;;;;4859806;29;20080;-64
2021/05/14 08:32:56;;;;;;;2.25;1.33;;;;;;;;;;4861249;29;20030;-71
2021/05/14 08:35:22;;;;;;;3.75;1.00;;;;;;;;;;4860762;29;20168;-68
2021/05/14 08:37:48;;;;;;;4.65;0.90;;;;;;;;;;4861071;29;20036;-71
2021/05/14 08:40:15;;;;;;;5.28;1.65;;;;;;;;;;4860062;29;20163;-61
2021/05/14 08:42:42;;;;;;;4.35;1.80;;;;;;;;;;4861090;29;20112;-61
2021/05/14 08:45:09;;;;;;;4.50;1.63;;;;;;;;;;4860810;29;20068;-64
2021/05/14 08:47:36;;;;;;;4.43;1.52;;;;;;;;;;4860970;29;20022;-69
2021/05/14 08:50:03;;;;;;;5.78;1.85;;;;;;;;;;4860907;29;20037;-69
2021/05/14 08:52:29;;;;;;;9.85;1.83;;;;;;;;;;4860789;29;20094;-72
2021/05/14 08:54:58;;;;;;;4.57;1.95;;;;;;;;;;4860864;29;20033;-65
2021/05/14 08:57:24;;;;;;;3.50;1.23;;;;;;;;;;4860127;29;20028;-66
2021/05/14 08:59:53;;;;;;;5.88;1.48;;;;;;;;;;4860854;29;20129;-66
2021/05/14 09:02:19;;;;;;;5.35;2.08;;;;;;;;;;4860535;29;20040;-70
2021/05/14 09:04:47;;;;;;;4.80;1.50;;;;;;;;;;4860864;29;20041;-70
2021/05/14 09:07:15;;;;;;;3.88;1.10;;;;;;;;;;4859952;29;20089;-72
2021/05/14 09:09:42;;;;;;;4.70;1.00;;;;;;;;;;4860261;29;20030;-68
2021/05/14 09:12:08;;;;;;;5.22;1.75;;;;;;;;;;4860357;29;20780;-66
2021/05/14 09:14:41;;;;;;;3.92;1.48;;;;;;;;;;4860209;29;20057;-72
2021/05/14 09:17:10;;;;;;;2.10;1.05;;;;;;;;;;4860203;29;20116;-60
2021/05/14 09:19:38;;;;;;;3.25;1.15;;;;;;;;;;4857793;29;20156;-65
2021/05/14 09:22:11;;;;;;;4.15;2.40;;;;;;;;;;4857383;29;20150;-70
2021/05/14 09:24:37;;;;;;;3.22;0.98;;;;;;;;;;4859326;29;20076;-61
2021/05/14 09:27:22;;;;;;;4.70;1.15;;;;;;;;;;4859594;29;20081;-66
2021/05/14 09:29:48;;;;;;;3.17;1.33;;;;;;;;;;4857237;29;20036;-60
2021/05/14 09:32:20;;;;;;;3.97;1.58;;;;;;;;;;4858964;29;20034;-67
2021/05/14 09:34:49;;;;;;;4.95;1.40;;;;;;;;;;4858640;29;20045;-72
2021/05/14 09:37:19;;;;;;;5.40;1.33;;;;;;;;;;4859318;29;20130;-60
2021/05/14 09:39:45;;;;;;;4.35;1.60;;;;;;;;;;4858064;29;20034;-63
2021/05/14 09:42:12;;;;;;;2.70;1.25;;;;;;;;;;4857789;29;20509;-71
2021/05/14 09:44:38;;;;;;;4.20;1.90;;;;;;;;;;4858596;29;20037;-62
2021/05/14 09:47:04;;;;;;;4.25;1.80;;;;;;;;;;4859480;29;20022;-72
2021/05/14 09:49:33;;;;;;;3.30;1.60;;;;;;;;;;4858990;29;20105;-71
2021/05/14 09:52:04;;;;;;;3.83;1.38;;;;;;;;;;4858804;29;20359;-71
2021/05/14 09:54:30;;;;;;;2.42;0.95;;;;;;;;;;4859007;29;20525;-71
2021/05/14 09:59:54;;;;;;;4.47;1.42;;;;;;;;;;4855097;29;20143;-70
2021/05/14 10:02:21;;;;;;;4.72;1.98;;;;;;;;;;4856456;29;20022;-70
2021/05/14 10:04:48;;;;;;;3.03;1.00;;;;;;;;;;4859089;29;20026;-71
2021/05/14 10:07:15;;;;;;;2.40;0.98;;;;;;;;;;4858962;29;20040;-70
2021/05/14 10:09:41;;;;;;;2.40;1.27;;;;;;;;;;4855859;29;20037;-68
2021/05/14 10:12:08;;;;;;;3.88;1.35;;;;;;;;;;4858171;29;20053;-61
2021/05/14 10:14:34;;;;;;;4.50;0.90;;;;;;;;;;4858032;29;20078;-72
2021/05/14 10:17:01;;;;;;;5.18;1.13;;;;;;;;;;4858728;29;20034;-67
2021/05/14 10:19:28;;;;;;;2.92;0.85;;;;;;;;;;4858177;29;20082;-65
2021/05/14 10:21:55;;;;;;;2.72;1.10;;;;;;;;;;4858109;29;20041;-66
2021/05/14 10:24:40;;;;;;;4.13;1.15;;;;;;;;;;4850790;29;20034;-70
2021/05/14 10:27:15;;;;;;;1.73;0.73;;;;;;;;;;4858160;29;20474;-70
2021/05/14 10:29:43;;;;;;;7.97;1.70;;;;;;;;;;4858992;29;20022;-69
2021/05/14 10:32:10;;;;;;;3.85;1.52;;;;;;;;;;4858062;29;20026;-79
2021/05/14 10:34:36;;;;;;;2.22;0.80;;;;;;;;;;4856109;29;20029;-64
2021/05/14 10:37:02;;;;;;;1.42;0.70;;;;;;;;;;4855020;29;20051;-61
2021/05/14 10:39:35;;;;;;;4.35;1.20;;;;;;;;;;4853613;29;20050;-61
2021/05/14 10:42:02;;;;;;;4.10;0.90;;;;;;;;;;4855707;29;20061;-77
2021/05/14 10:44:43;;;;;;;2.45;0.80;;;;;;;;;;4857131;29;20029;-68
2021/05/14 10:47:22;;;;;;;1.98;1.20;;;;;;;;;;4852911;29;20038;-75
2021/05/14 10:49:51;;;;;;;5.70;1.23;;;;;;;;;;4855112;29;20029;-70
2021/05/14 10:52:18;;;;;;;3.80;1.23;;;;;;;;;;4857274;29;20029;-73
2021/05/14 10:54:44;;;;;;;5.72;1.25;;;;;;;;;;4855508;29;20421;-68
2021/05/14 10:57:10;;;;;;;3.13;0.90;;;;;;;;;;4856761;29;20112;-61
2021/05/14 10:59:41;;;;;;;3.03;0.90;;;;;;;;;;4854900;29;20037;-69
2021/05/14 11:02:27;;;;;;;2.22;1.10;;;;;;;;;;4857117;29;20025;-61
2021/05/14 11:04:53;;;;;;;2.53;0.90;;;;;;;;;;4854926;29;20031;-71
2021/05/14 11:07:42;;;;;;;2.78;1.30;;;;;;;;;;4856931;29;20383;-70
2021/05/14 11:10:14;;;;;;;2.83;1.17;;;;;;;;;;4853678;29;20128;-66
2021/05/14 11:12:45;;;;;;;2.72;1.25;;;;;;;;;;4856931;29;20386;-69
2021/05/14 11:15:20;;;;;;;1.83;1.00;;;;;;;;;;4854414;29;20029;-68
2021/05/14 11:18:05;;;;;;;2.58;0.90;;;;;;;;;;4856678;29;20395;-70
2021/05/14 11:20:40;;;;;;;3.88;1.42;;;;;;;;;;4851367;29;20041;-64
2021/05/14 11:23:25;;;;;;;4.75;1.45;;;;;;;;;;4856932;29;20057;-60
2021/05/14 11:25:51;;;;;;;4.97;1.30;;;;;;;;;;4856407;29;20088;-72
2021/05/14 11:28:17;;;;;;;5.55;1.70;;;;;;;;;;4848968;29;20075;-69
2021/05/14 11:30:53;;;;;;;2.55;1.00;;;;;;;;;;4841108;29;20034;-73
2021/05/14 11:33:27;;;;;;;3.53;1.50;;;;;;;;;;4841001;29;20082;-72
2021/05/14 11:35:53;;;;;;;2.88;1.10;;;;;;;;;;4857462;29;20068;-75
2021/05/14 11:38:19;;;;;;;2.58;1.40;;;;;;;;;;4857342;29;20030;-72
2021/05/14 11:40:48;;;;;;;4.18;1.10;;;;;;;;;;4857361;29;20110;-73
2021/05/14 11:43:14;;;;;;;7.00;1.35;;;;;;;;;;4857319;29;20505;-59
2021/05/14 11:45:44;;;;;;;6.53;1.30;;;;;;;;;;4857677;29;20043;-60
2021/05/14 11:48:10;;;;;;;7.90;1.27;;;;;;;;;;4857376;29;20033;-71
2021/05/14 11:50:36;;;;;;;3.53;1.65;;;;;;;;;;4852224;29;20065;-65
2021/05/14 11:53:04;;;;;;;4.53;1.42;;;;;;;;;;4847265;29;20355;-63
2021/05/14 11:55:30;;;;;;;3.55;1.70;;;;;;;;;;4847987;29;20026;-65
2021/05/14 11:57:58;;;;;;;5.70;2.40;;;;;;;;;;4846868;29;20026;-60
2021/05/14 12:00:30;;;;;;;3.50;2.03;;;;;;;;;;4850610;29;20084;-61
2021/05/14 12:02:58;;;;;;;3.38;1.52;;;;;;;;;;4839219;29;20034;-64
2021/05/14 12:05:24;;;;;;;5.00;1.70;;;;;;;;;;4850408;29;20038;-61
2021/05/14 12:07:51;;;;;;;5.20;1.50;;;;;;;;;;4851434;29;20544;-59
2021/05/14 12:10:18;;;;;;;2.78;1.50;;;;;;;;;;4857174;29;20048;-70
2021/05/14 12:12:45;;;;;;;4.60;1.45;;;;;;;;;;4856890;29;20128;-61
2021/05/14 12:15:15;;;;;;;4.82;1.33;;;;;;;;;;4851579;29;20120;-68
2021/05/14 12:17:41;;;;;;;4.32;1.50;;;;;;;;;;4852562;29;20508;-60
2021/05/14 12:20:14;;;;;;;5.57;1.80;;;;;;;;;;4857309;29;20068;-69
2021/05/14 12:22:48;;;;;;;5.20;1.70;;;;;;;;;;4850627;29;20089;-66
2021/05/14 12:25:15;;;;;;;5.63;1.73;;;;;;;;;;4857705;29;20086;-61
2021/05/14 12:27:41;;;;;;;4.57;1.60;;;;;;;;;;4850111;29;20030;-69
2021/05/14 12:30:09;;;;;;;5.03;1.92;;;;;;;;;;4856309;29;20030;-70
2021/05/14 12:32:36;;;;;;;7.15;2.13;;;;;;;;;;4857407;29;20104;-72
2021/05/14 12:35:03;;;;;;;6.10;1.70;;;;;;;;;;4857631;29;20033;-61
2021/05/14 12:37:29;;;;;;;4.53;1.70;;;;;;;;;;4857516;29;20034;-61
2021/05/14 12:39:55;;;;;;;6.97;2.20;;;;;;;;;;4857098;29;20050;-67
2021/05/14 12:42:25;;;;;;;5.43;1.77;;;;;;;;;;4857532;29;20045;-70
2021/05/14 12:44:52;;;;;;;5.15;2.00;;;;;;;;;;4857271;29;20553;-64
2021/05/14 12:47:21;;;;;;;7.03;2.50;;;;;;;;;;4849495;29;20025;-66
2021/05/14 12:50:03;;;;;;;6.38;1.92;;;;;;;;;;4839046;29;20025;-69
2021/05/14 12:52:32;;;;;;;5.87;2.20;;;;;;;;;;4845708;29;20037;-60
2021/05/14 12:54:59;;;;;;;4.82;2.20;;;;;;;;;;4857195;29;20037;-68
2021/05/14 12:57:35;;;;;;;5.50;1.85;;;;;;;;;;4857610;29;20069;-65
2021/05/14 13:00:04;;;;;;;6.85;2.38;;;;;;;;;;4857754;29;20473;-67
2021/05/14 13:02:33;;;;;;;4.15;1.52;;;;;;;;;;4857613;29;20030;-69
2021/05/14 13:04:59;;;;;;;8.82;1.90;;;;;;;;;;4858741;29;20033;-70
2021/05/14 13:07:25;;;;;;;4.78;1.55;;;;;;;;;;4860888;29;20029;-69
2021/05/14 13:09:51;;;;;;;5.72;2.42;;;;;;;;;;4857718;29;20478;-69
2021/05/14 13:12:17;;;;;;;6.32;1.80;;;;;;;;;;4841859;29;20049;-69
2021/05/14 13:14:44;;;;;;;3.13;1.80;;;;;;;;;;4841978;29;20038;-69
2021/05/14 13:17:10;;;;;;;5.18;1.35;;;;;;;;;;4841989;29;20030;-69
2021/05/14 13:19:36;;;;;;;3.22;1.23;;;;;;;;;;4841706;29;20076;-65
2021/05/14 13:22:03;;;;;;;4.40;1.40;;;;;;;;;;4841825;29;20510;-67
2021/05/14 13:24:29;;;;;;;10.93;2.00;;;;;;;;;;4851511;29;20532;-64
2021/05/14 13:26:55;;;;;;;5.93;1.73;;;;;;;;;;4859494;29;20052;-63
2021/05/14 13:29:21;;;;;;;4.22;1.20;;;;;;;;;;4860297;29;20402;-68
2021/05/14 13:31:47;;;;;;;3.85;1.20;;;;;;;;;;4860064;29;20026;-82
2021/05/14 13:34:13;;;;;;;4.68;1.60;;;;;;;;;;4860139;29;20041;-71
2021/05/14 13:36:39;;;;;;;4.22;1.45;;;;;;;;;;4860112;29;20030;-60
2021/05/14 13:39:05;;;;;;;3.28;1.60;;;;;;;;;;4860103;29;20069;-63
2021/05/14 13:41:33;;;;;;;3.00;1.00;;;;;;;;;;4859920;29;20141;-71
2021/05/14 13:43:59;;;;;;;3.60;1.60;;;;;;;;;;4846441;29;20030;-65
2021/05/14 13:46:25;;;;;;;3.22;1.52;;;;;;;;;;4857537;29;20079;-76
2021/05/14 13:48:51;;;;;;;2.47;1.17;;;;;;;;;;4859609;29;20041;-70
2021/05/14 13:51:17;;;;;;;3.90;1.55;;;;;;;;;;4859608;29;20034;-70
2021/05/14 13:53:43;;;;;;;4.70;1.52;;;;;;;;;;4859508;29;20041;-71
2021/05/14 13:56:09;;;;;;;4.85;1.42;;;;;;;;;;4856782;29;20034;-71
2021/05/14 13:58:35;;;;;;;4.07;1.25;;;;;;;;;;4858878;29;20033;-62
2021/05/14 14:01:01;;;;;;;3.25;1.17;;;;;;;;;;4859125;29;20025;-63
2021/05/14 14:03:28;;;;;;;3.05;1.48;;;;;;;;;;4859488;29;20025;-66
2021/05/14 14:05:54;;;;;;;5.38;1.73;;;;;;;;;;4859661;29;20045;-70
2021/05/14 14:08:20;;;;;;;4.47;1.70;;;;;;;;;;4856660;29;20032;-73
2021/05/14 14:10:46;;;;;;;5.35;1.55;;;;;;;;;;4858829;29;20533;-71
2021/05/14 14:13:13;;;;;;;3.50;1.15;;;;;;;;;;4858845;29;20037;-72
2021/05/14 14:15:39;;;;;;;2.55;1.10;;;;;;;;;;4856430;29;20029;-71
2021/05/14 14:18:06;;;;;;;2.67;1.20;;;;;;;;;;4858905;29;20028;-75
2021/05/14 14:20:32;;;;;;;4.93;1.30;;;;;;;;;;4857862;29;20124;-76
2021/05/14 14:22:58;;;;;;;3.45;1.20;;;;;;;;;;4862650;29;20040;-65
2021/05/14 14:25:24;;;;;;;5.93;1.30;;;;;;;;;;4863611;29;20561;-70
2021/05/14 14:27:50;;;;;;;6.93;1.85;;;;;;;;;;4859183;29;20026;-60
2021/05/14 14:30:17;;;;;;;10.82;2.22;;;;;;;;;;4858861;29;20038;-60
2021/05/14 14:32:43;;;;;;;7.30;1.23;;;;;;;;;;4858437;29;20025;-61
2021/05/14 14:35:12;;;;;;;3.70;0.82;;;;;;;;;;4858596;29;20129;-62
2021/05/14 14:37:38;;;;;;;3.35;1.45;;;;;;;;;;4858852;29;20536;-60
2021/05/14 14:40:05;;;;;;;6.30;1.75;;;;;;;;;;4854075;29;20053;-62
2021/05/14 14:42:31;;;;;;;4.85;1.40;;;;;;;;;;4858958;29;20080;-61
2021/05/14 14:44:57;;;;;;;4.63;1.60;;;;;;;;;;4858764;29;20374;-63
2021/05/14 14:47:24;;;;;;;7.38;2.58;;;;;;;;;;4858781;29;20068;-60
2021/05/14 14:49:50;;;;;;;5.97;2.08;;;;;;;;;;4858515;29;20033;-60
2021/05/14 14:52:16;;;;;;;3.40;1.40;;;;;;;;;;4858089;29;20621;-71
2021/05/14 14:54:42;;;;;;;6.68;1.30;;;;;;;;;;4857929;29;20029;-69
2021/05/14 14:57:08;;;;;;;5.80;1.67;;;;;;;;;;4858246;29;20054;-66
2021/05/14 14:59:34;;;;;;;3.95;1.30;;;;;;;;;;4852528;29;20132;-61
2021/05/14 15:02:00;;;;;;;5.22;1.35;;;;;;;;;;4852495;29;20026;-70
2021/05/14 15:04:26;;;;;;;6.18;1.55;;;;;;;;;;4848450;29;20533;-71
2021/05/14 15:06:53;;;;;;;2.05;1.20;;;;;;;;;;4858676;29;20065;-72
2021/05/14 15:09:19;;;;;;;4.80;1.20;;;;;;;;;;4846017;29;20129;-71
2021/05/14 15:11:45;;;;;;;4.07;1.17;;;;;;;;;;4857650;29;20427;-65
2021/05/14 15:14:11;;;;;;;3.00;1.30;;;;;;;;;;4858683;29;20029;-60
2021/05/14 15:16:40;;;;;;;2.33;0.90;;;;;;;;;;4869511;29;20156;-67
2021/05/14 15:19:06;;;;;;;2.65;0.88;;;;;;;;;;4876896;29;20076;-60
2021/05/14 15:21:33;;;;;;;2.78;0.90;;;;;;;;;;4877267;29;20025;-72
2021/05/14 15:23:59;;;;;;;3.05;0.70;;;;;;;;;;4859408;29;20029;-60
2021/05/14 15:26:25;;;;;;;2.22;1.00;;;;;;;;;;4857783;29;20042;-74
2021/05/14 15:28:51;;;;;;;2.58;0.80;;;;;;;;;;4857533;29;20018;-73
2021/05/14 15:31:17;;;;;;;4.00;1.10;;;;;;;;;;4857888;29;20032;-71
2021/05/14 15:33:43;;;;;;;4.50;1.27;;;;;;;;;;4857598;29;20035;-68
2021/05/14 15:36:09;;;;;;;2.80;1.00;;;;;;;;;;4857849;29;20913;-70
2021/05/14 15:38:35;;;;;;;2.47;0.70;;;;;;;;;;4857846;29;20120;-72
2021/05/14 15:41:02;;;;;;;1.27;0.50;;;;;;;;;;4851483;29;20054;-60
2021/05/14 15:43:28;;;;;;;2.33;0.80;;;;;;;;;;4849424;29;20048;-72
2021/05/14 15:45:55;;;;;;;4.25;1.88;;;;;;;;;;4850385;29;20383;-72
2021/05/14 15:48:21;;;;;;;3.70;1.00;;;;;;;;;;4848321;29;20040;-68
2021/05/14 15:50:47;;;;;;;2.45;0.75;;;;;;;;;;4857014;29;20041;-67
2021/05/14 15:53:14;;;;;;;1.92;0.60;;;;;;;;;;4857569;29;20402;-74
2021/05/14 15:55:41;;;;;;;4.10;0.88;;;;;;;;;;4857748;29;20032;-70
2021/05/14 15:58:07;;;;;;;0.93;0.52;;;;;;;;;;4857797;29;20434;-68
2021/05/14 16:00:33;;;;;;;1.75;0.68;;;;;;;;;;4855250;29;20038;-72
2021/05/14 16:02:59;;;;;;;4.18;0.73;;;;;;;;;;4857598;29;20026;-69
2021/05/14 16:05:26;;;;;;;3.13;0.85;;;;;;;;;;4857926;29;20029;-59
2021/05/14 16:07:52;;;;;;;2.70;1.10;;;;;;;;;;4857433;29;20040;-67
2021/05/14 16:10:19;;;;;;;3.08;1.58;;;;;;;;;;4857636;29;20108;-66
2021/05/14 16:12:45;;;;;;;3.20;1.80;;;;;;;;;;4855466;29;20124;-68
2021/05/14 16:15:12;;;;;;;5.68;1.60;;;;;;;;;;4846863;29;20038;-62
2021/05/14 16:17:40;;;;;;;2.38;1.00;;;;;;;;;;4849185;29;20493;-65
2021/05/14 16:20:07;;;;;;;6.78;1.98;;;;;;;;;;4852481;29;20129;-66
2021/05/14 16:22:33;;;;;;;4.97;2.63;;;;;;;;;;4857304;29;20053;-65
2021/05/14 16:24:59;;;;;;;7.00;1.48;;;;;;;;;;4857475;29;20040;-66
2021/05/14 16:27:25;;;;;;;3.50;1.25;;;;;;;;;;4852896;29;20364;-64
2021/05/14 16:29:54;;;;;;;3.05;0.88;;;;;;;;;;4845449;29;20036;-67
2021/05/14 16:32:20;;;;;;;2.88;0.80;;;;;;;;;;4856732;29;20033;-68
2021/05/14 16:34:46;;;;;;;2.75;0.90;;;;;;;;;;4853417;29;20037;-67
2021/05/14 16:37:12;;;;;;;1.90;0.88;;;;;;;;;;4849423;29;20105;-66
2021/05/14 16:39:39;;;;;;;3.20;0.80;;;;;;;;;;4848603;29;20071;-66
2021/05/14 16:42:08;;;;;;;9.02;1.30;;;;;;;;;;4852153;29;20076;-61
2021/05/14 16:44:34;;;;;;;3.00;1.75;;;;;;;;;;4853823;29;20025;-62
2021/05/14 16:47:01;;;;;;;1.67;0.90;;;;;;;;;;4861034;29;20026;-68
2021/05/14 16:49:27;;;;;;;9.30;1.13;;;;;;;;;;4861102;29;20461;-69
2021/05/14 16:51:53;;;;;;;32.80;3.42;;;;;;;;;;4860371;29;20542;-66
2021/05/14 16:54:19;;;;;;;6.57;2.78;;;;;;;;;;4860732;29;20081;-62
2021/05/14 16:56:45;;;;;;;2.75;1.00;;;;;;;;;;4859846;29;20040;-65
2021/05/14 16:59:12;;;;;;;13.40;1.92;;;;;;;;;;4860723;29;20037;-66
2021/05/14 17:01:38;;;;;;;2.97;1.10;;;;;;;;;;4860639;29;20037;-67
2021/05/14 17:04:06;;;;;;;2.42;1.00;;;;;;;;;;4860754;29;20448;-60
2021/05/14 17:06:52;;;;;;;4.15;1.45;;;;;;;;;;4860690;29;20033;-68
2021/05/14 17:09:19;;;;;;;3.80;1.13;;;;;;;;;;4860126;29;20057;-69
2021/05/14 17:11:45;;;;;;;3.17;0.93;;;;;;;;;;4860631;29;20052;-61
2021/05/14 17:14:12;;;;;;;3.97;1.08;;;;;;;;;;4855841;29;20102;-61
2021/05/14 17:16:39;;;;;;;2.30;1.05;;;;;;;;;;4860214;29;20040;-64
2021/05/14 17:19:05;;;;;;;2.20;1.02;;;;;;;;;;4860129;29;20041;-60
2021/05/14 17:21:32;;;;;;;4.75;1.08;;;;;;;;;;4860121;29;20065;-59
2021/05/14 17:23:58;;;;;;;3.03;1.23;;;;;;;;;;4860156;29;20034;-65
2021/05/14 17:26:24;;;;;;;4.55;1.27;;;;;;;;;;4860153;29;20034;-65
2021/05/14 17:28:50;;;;;;;2.67;1.10;;;;;;;;;;4859701;29;20670;-64
2021/05/14 17:31:18;;;;;;;7.53;1.42;;;;;;;;;;4860032;29;20180;-67
2021/05/14 17:33:44;;;;;;;3.58;1.10;;;;;;;;;;4859743;29;20029;-64
2021/05/14 17:36:10;;;;;;;4.07;1.17;;;;;;;;;;4859466;29;20073;-68
2021/05/14 17:38:37;;;;;;;5.47;1.45;;;;;;;;;;4859491;29;20065;-68
2021/05/14 17:41:04;;;;;;;3.38;1.55;;;;;;;;;;4859462;29;20167;-61
2021/05/14 17:43:30;;;;;;;4.57;1.83;;;;;;;;;;4858963;29;20058;-63
2021/05/14 17:45:56;;;;;;;5.03;2.20;;;;;;;;;;4859072;29;20029;-58
2021/05/14 17:48:23;;;;;;;3.33;1.58;;;;;;;;;;4859016;29;20166;-64
2021/05/14 17:50:49;;;;;;;3.50;1.80;;;;;;;;;;4842909;29;20148;-67
2021/05/14 17:53:16;;;;;;;4.32;2.05;;;;;;;;;;4841266;29;20892;-65
2021/05/14 17:55:44;;;;;;;4.97;2.03;;;;;;;;;;4840947;29;20490;-68
2021/05/14 17:58:10;;;;;;;7.80;2.40;;;;;;;;;;4841068;29;20034;-65
2021/05/14 18:00:36;;;;;;;5.90;1.98;;;;;;;;;;4840640;29;20041;-69
2021/05/14 18:03:02;;;;;;;6.25;2.35;;;;;;;;;;4841337;29;20569;-69
2021/05/14 18:05:29;;;;;;;5.93;2.20;;;;;;;;;;4841275;29;20038;-67
2021/05/14 18:07:56;;;;;;;7.20;2.47;;;;;;;;;;4841117;29;20073;-69
2021/05/14 18:10:22;;;;;;;6.53;2.35;;;;;;;;;;4841040;29;20403;-69
2021/05/14 18:12:48;;;;;;;5.45;2.65;;;;;;;;;;4839255;29;20122;-69
2021/05/14 18:15:15;;;;;;;3.97;2.08;;;;;;;;;;4840754;29;20034;-68
2021/05/14 18:17:42;;;;;;;6.15;2.33;;;;;;;;;;4840703;29;20029;-60
2021/05/14 18:20:09;;;;;;;4.45;1.90;;;;;;;;;;4840420;29;20045;-67
2021/05/14 18:22:36;;;;;;;4.20;2.00;;;;;;;;;;4840641;29;20033;-67
2021/05/14 18:25:02;;;;;;;5.88;2.65;;;;;;;;;;4840694;29;20029;-68
2021/05/14 18:27:28;;;;;;;6.95;3.10;;;;;;;;;;4840777;29;20026;-69
2021/05/14 18:29:55;;;;;;;7.93;3.47;;;;;;;;;;4840426;29;20030;-69
2021/05/14 18:32:21;;;;;;;6.75;3.92;;;;;;;;;;4840245;29;20106;-68
2021/05/14 18:34:49;;;;;;;4.15;2.33;;;;;;;;;;4840206;29;20029;-69
2021/05/14 18:37:15;;;;;;;9.00;3.60;;;;;;;;;;4840126;29;20037;-69
2021/05/14 18:39:42;;;;;;;8.02;4.35;;;;;;;;;;4839661;29;20561;-60
2021/05/14 18:42:08;;;;;;;5.70;3.35;;;;;;;;;;4840239;29;20464;-65
2021/05/14 18:44:34;;;;;;;7.97;3.90;;;;;;;;;;4840400;29;20034;-67
2021/05/14 18:47:00;;;;;;;11.05;4.88;;;;;;;;;;4840099;29;20452;-65
2021/05/14 18:49:26;;;;;;;12.77;4.85;;;;;;;;;;4844459;29;20038;-68
2021/05/14 18:51:52;;;;;;;12.23;4.35;;;;;;;;;;4848287;29;20045;-64
2021/05/14 18:54:21;;;;;;;11.23;4.82;;;;;;;;;;4849608;29;20030;-64
2021/05/14 18:56:47;;;;;;;11.25;4.65;;;;;;;;;;4849153;29;20201;-67
2021/05/14 18:59:13;;;;;;;13.10;5.18;;;;;;;;;;4848034;29;20058;-66
2021/05/14 19:01:39;;;;;;;11.77;4.50;;;;;;;;;;4848992;29;20075;-67
2021/05/14 19:04:06;;;;;;;10.00;4.10;;;;;;;;;;4840829;29;20030;-63
2021/05/14 19:06:32;;;;;;;6.88;3.13;;;;;;;;;;4840364;29;20346;-63
2021/05/14 19:08:59;;;;;;;8.82;3.22;;;;;;;;;;4839566;29;20037;-69
2021/05/14 19:11:25;;;;;;;8.90;3.90;;;;;;;;;;4839842;29;20033;-66
2021/05/14 19:13:51;;;;;;;8.55;3.30;;;;;;;;;;4840849;29;20137;-62
2021/05/14 19:16:17;;;;;;;13.18;6.05;;;;;;;;;;4857369;29;20030;-67
2021/05/14 19:18:43;;;;;;;16.63;7.57;;;;;;;;;;4850643;29;20128;-69
2021/05/14 19:21:10;;;;;;;10.85;6.05;;;;;;;;;;4848205;29;20094;-68
2021/05/14 19:27:01;;;;;;;10.52;3.83;;;;;;;;;;4800546;29;20100;-73
2021/05/14 19:35:20;;;;;;;14.15;5.55;;;;;;;;;;4800410;29;20054;-80
2021/05/14 19:48:35;;;;;;;16.17;6.18;;;;;;;;;;4764393;30;20039;-65
2021/05/14 19:51:01;;;;;;;14.02;6.43;;;;;;;;;;4764489;30;20101;-67
2021/05/14 19:53:27;;;;;;;17.70;9.02;;;;;;;;;;4764555;29;20036;-70
2021/05/14 19:55:53;;;;;;;20.95;8.70;;;;;;;;;;4764330;30;20046;-71
2021/05/14 19:58:20;;;;;;;17.92;8.13;;;;;;;;;;4764439;30;20073;-61
2021/05/14 20:00:46;;;;;;;17.25;9.48;;;;;;;;;;4783278;29;20047;-62
2021/05/14 20:03:12;;;;;;;18.05;7.97;;;;;;;;;;4804164;29;20369;-66
2021/05/14 20:05:38;;;;;;;15.20;6.03;;;;;;;;;;4814737;29;20046;-74
2021/05/14 20:08:04;;;;;;;15.90;7.47;;;;;;;;;;4800594;29;20063;-63
2021/05/14 20:10:31;;;;;;;15.60;6.50;;;;;;;;;;4800691;29;20035;-62
2021/05/14 20:13:00;;;;;;;16.83;8.88;;;;;;;;;;4801119;29;20055;-73
2021/05/14 20:15:26;;;;;;;19.52;9.45;;;;;;;;;;4804200;29;20092;-67
2021/05/14 20:17:52;;;;;;;19.08;8.85;;;;;;;;;;4804224;29;20088;-60
2021/05/14 20:20:19;;;;;;;15.63;7.45;;;;;;;;;;4803577;29;20071;-64
2021/05/14 20:22:45;;;;;;;15.88;7.45;;;;;;;;;;4804190;29;20500;-61
2021/05/14 20:25:13;;;;;;;13.80;6.15;;;;;;;;;;4823006;29;20116;-72
2021/05/14 20:27:39;;;;;;;12.25;6.32;;;;;;;;;;4861417;29;20044;-62
2021/05/14 20:30:06;;;;;;;12.20;6.25;;;;;;;;;;4861235;29;20112;-63
2021/05/14 20:32:32;;;;;;;13.93;6.03;;;;;;;;;;4860964;29;20045;-60
2021/05/14 20:35:00;;;;;;;10.07;5.70;;;;;;;;;;4861151;29;20508;-65
2021/05/14 20:37:35;;;;;;;11.95;6.03;;;;;;;;;;4861534;29;20060;-76
2021/05/14 20:40:03;;;;;;;10.02;4.63;;;;;;;;;;4846691;29;20106;-71
2021/05/14 20:42:29;;;;;;;11.00;4.57;;;;;;;;;;4842438;29;20077;-62